createdAt,value
2023-05-10T00:24:17.974Z,100
2023-05-10T00:53:05.055Z,100
2023-05-10T01:22:07.210Z,100
2023-05-10T01:51:05.545Z,100
2023-05-10T02:20:01.770Z,100
2023-05-10T02:49:00.510Z,100
2023-05-10T03:18:04.470Z,100
2023-05-10T03:46:50.516Z,100
2023-05-10T04:15:31.988Z,100
2023-05-10T04:44:33.780Z,100
2023-05-10T05:13:45.756Z,100
2023-05-10T05:42:40.684Z,100
2023-05-10T06:11:37.108Z,100
2023-05-10T06:39:59.177Z,100
2023-05-10T07:08:18.765Z,100
2023-05-10T07:36:48.187Z,99.31
2023-05-10T08:05:20.085Z,94.92
2023-05-10T08:33:52.664Z,73.71
2023-05-10T09:01:32.797Z,96.72
2023-05-10T09:30:09.202Z,88.86
2023-05-10T09:58:13.730Z,85.73
2023-05-10T10:26:32.497Z,73.56
2023-05-10T10:55:20.437Z,58.96
2023-05-10T11:23:37.844Z,54.27
2023-05-10T11:51:49.858Z,53.25
2023-05-10T12:20:12.649Z,52.02
2023-05-10T12:48:36.277Z,55.13
2023-05-10T13:17:08.514Z,52.14
2023-05-10T13:45:30.420Z,50.17
2023-05-10T14:13:29.718Z,51.12
2023-05-10T14:41:53.261Z,51.08
2023-05-10T15:10:34.880Z,87.07
2023-05-10T15:39:11.924Z,86.55
2023-05-10T16:08:00.317Z,94
2023-05-10T16:37:03.817Z,97.12
2023-05-10T17:06:10.171Z,85.04
2023-05-10T17:35:00.556Z,76.06
2023-05-10T18:03:52.619Z,82.73
2023-05-10T18:32:50.926Z,86.79
2023-05-10T19:01:40.673Z,88.73
2023-05-10T19:30:31.379Z,91.15
2023-05-10T19:59:08.349Z,93.8
2023-05-10T20:28:00.579Z,92.87
2023-05-10T20:56:57.634Z,93.08
2023-05-10T21:25:52.808Z,93.86
2023-05-10T21:54:51.524Z,93.11
2023-05-10T22:23:46.446Z,93.87
2023-05-10T22:52:38.124Z,93.88
2023-05-10T23:21:37.308Z,93.21
2023-05-10T23:50:24.373Z,93.72
